Time;durP1;ratioP1;P1;durP2;ratioP2;P2;SDS_P1;SDS_P2;PMS_P1;PMS_P2;Temp;Humidity;BMP_temperature;BMP_pressure;BME280_temperature;BME280_humidity;BME280_pressure;Samples;Min_cycle;Max_cycle;Signal;HPM_P1;HPM_P2
2022/04/19 00:00:51;;;;;;;0.40;0.20;;;;;;;7.94;100.00;100879.53;5098513;28;20036;-49
2022/04/19 00:03:16;;;;;;;3.67;0.57;;;;;;;7.85;100.00;100879.53;5101038;28;20028;-52
2022/04/19 00:05:42;;;;;;;0.20;0.05;;;;;;;7.82;100.00;100879.03;5100850;28;20590;-51
2022/04/19 00:08:10;;;;;;;0.50;0.00;;;;;;;7.81;100.00;100877.38;5095591;28;20077;-47
2022/04/19 00:10:36;;;;;;;0.32;0.13;;;;;;;7.73;100.00;100883.47;5094622;28;20475;-48
2022/04/19 00:13:03;;;;;;;0.57;0.40;;;;;;;7.63;100.00;100888.06;5103926;28;20154;-49
2022/04/19 00:15:30;;;;;;;1.05;0.60;;;;;;;7.55;100.00;100890.69;5097514;28;20030;-48
2022/04/19 00:17:57;;;;;;;0.30;0.20;;;;;;;7.50;100.00;100890.34;5105111;28;20463;-49
2022/04/19 00:20:24;;;;;;;0.15;0.10;;;;;;;7.43;100.00;100884.88;5104218;28;20036;-49
2022/04/19 00:22:49;;;;;;;2.47;0.35;;;;;;;7.38;100.00;100887.19;5108376;28;20023;-47
2022/04/19 00:25:16;;;;;;;2.15;0.32;;;;;;;7.29;100.00;100886.34;5075798;28;20068;-48
2022/04/19 00:27:42;;;;;;;0.95;0.52;;;;;;;7.18;100.00;100884.81;5099212;28;20115;-54
2022/04/19 00:30:08;;;;;;;0.22;0.10;;;;;;;7.15;100.00;100882.50;5106924;28;20055;-49
2022/04/19 00:32:34;;;;;;;0.82;0.00;;;;;;;7.11;100.00;100878.50;5107688;28;20024;-47
2022/04/19 00:35:00;;;;;;;1.08;0.17;;;;;;;7.01;100.00;100885.72;5108629;28;20388;-53
2022/04/19 00:37:26;;;;;;;1.48;0.60;;;;;;;6.92;100.00;100889.31;5100451;28;20031;-50
2022/04/19 00:39:52;;;;;;;0.38;0.10;;;;;;;6.83;100.00;100882.34;5107701;28;20035;-52
2022/04/19 00:42:18;;;;;;;2.28;0.05;;;;;;;6.72;100.00;100884.25;5106758;28;20165;-50
2022/04/19 00:44:43;;;;;;;3.05;1.02;;;;;;;6.65;100.00;100883.22;5107796;28;20119;-50
2022/04/19 00:47:10;;;;;;;0.80;0.20;;;;;;;6.61;100.00;100879.25;5099398;28;20540;-47
2022/04/19 00:49:43;;;;;;;1.75;0.45;;;;;;;6.47;100.00;100877.19;5106107;28;20036;-51
2022/04/19 00:52:10;;;;;;;1.55;0.75;;;;;;;6.34;100.00;100880.22;5099544;28;20020;-48
2022/04/19 00:54:35;;;;;;;3.33;1.20;;;;;;;6.25;100.00;100879.34;5073140;28;20066;-49
2022/04/19 00:57:01;;;;;;;0.40;0.10;;;;;;;6.14;100.00;100876.94;5101034;28;20380;-48
2022/04/19 00:59:26;;;;;;;0.50;0.10;;;;;;;6.01;100.00;100876.50;5104420;28;20047;-49
2022/04/19 01:01:52;;;;;;;1.67;0.20;;;;;;;5.92;100.00;100872.13;5107518;28;20036;-49
2022/04/19 01:04:18;;;;;;;0.55;0.40;;;;;;;5.83;100.00;100877.28;5102156;28;20027;-52
2022/04/19 01:06:44;;;;;;;0.30;0.10;;;;;;;5.76;100.00;100873.63;5109336;28;20027;-52
2022/04/19 01:09:10;;;;;;;1.95;0.38;;;;;;;5.68;100.00;100870.91;5108604;28;20039;-52
2022/04/19 01:14:20;;;;;;;0.52;0.00;;;;;;;5.50;100.00;100880.56;5103857;28;20084;-49
2022/04/19 01:16:46;;;;;;;3.95;1.05;;;;;;;5.37;100.00;100871.25;5095899;28;20645;-47
2022/04/19 01:19:16;;;;;;;0.20;0.00;;;;;;;5.27;100.00;100873.09;5108552;28;20031;-50
2022/04/19 01:21:48;;;;;;;0.73;0.25;;;;;;;5.16;100.00;100868.03;5100590;28;20023;-49
2022/04/19 01:24:22;;;;;;;0.38;0.10;;;;;;;5.03;100.00;100871.00;5091013;28;20302;-48
2022/04/19 01:26:48;;;;;;;1.58;0.10;;;;;;;4.97;100.00;100869.78;5095843;28;20024;-47
2022/04/19 01:29:15;;;;;;;1.35;0.30;;;;;;;4.93;100.00;100870.19;5104360;28;20036;-47
2022/04/19 01:31:41;;;;;;;1.02;0.28;;;;;;;4.90;100.00;100860.00;5089553;28;20067;-49
2022/04/19 01:34:07;;;;;;;1.52;0.17;;;;;;;4.79;100.00;100871.50;5106114;28;20541;-50
2022/04/19 01:36:35;;;;;;;1.00;0.35;;;;;;;4.70;100.00;100874.97;5102233;28;21076;-50
2022/04/19 01:39:05;;;;;;;0.40;0.40;;;;;;;4.67;100.00;100870.03;5101060;28;20408;-49
2022/04/19 01:41:31;;;;;;;3.00;0.20;;;;;;;4.64;100.00;100868.50;5099598;28;20020;-49
2022/04/19 01:43:57;;;;;;;0.68;0.25;;;;;;;4.67;100.00;100872.66;5098001;28;20502;-50
2022/04/19 01:46:23;;;;;;;0.25;0.25;;;;;;;4.67;100.00;100870.03;5106003;28;20036;-49
2022/04/19 01:48:50;;;;;;;2.20;0.30;;;;;;;4.65;100.00;100872.00;5098689;28;20395;-47
2022/04/19 01:51:16;;;;;;;1.98;0.00;;;;;;;4.66;100.00;100868.38;5103355;28;20035;-51
2022/04/19 01:53:41;;;;;;;3.40;0.35;;;;;;;4.54;100.00;100873.81;5096251;28;20354;-47
2022/04/19 01:56:07;;;;;;;0.20;0.20;;;;;;;4.46;100.00;100863.16;5100308;28;20027;-48
2022/04/19 01:58:32;;;;;;;2.05;0.15;;;;;;;4.43;100.00;100858.19;5099027;28;20468;-48
2022/04/19 02:00:58;;;;;;;1.05;0.10;;;;;;;4.46;100.00;100875.47;5090134;28;20036;-49
2022/04/19 02:03:24;;;;;;;0.25;0.05;;;;;;;4.39;100.00;100867.34;5107599;28;20047;-50
2022/04/19 02:05:49;;;;;;;4.63;0.20;;;;;;;4.37;100.00;100871.91;5106964;28;20026;-49
2022/04/19 02:08:14;;;;;;;2.50;0.17;;;;;;;4.35;100.00;100871.22;5106344;28;20438;-51
2022/04/19 02:10:39;;;;;;;3.40;0.38;;;;;;;4.38;100.00;100870.94;5089992;28;21638;-52
2022/04/19 02:13:05;;;;;;;0.82;0.40;;;;;;;4.41;100.00;100870.63;5101661;28;20472;-50
2022/04/19 02:15:31;;;;;;;1.45;0.40;;;;;;;4.47;100.00;100871.91;5082943;28;20036;-48
2022/04/19 02:17:56;;;;;;;2.42;0.50;;;;;;;4.53;100.00;100869.50;5091061;28;20100;-49
2022/04/19 02:20:22;;;;;;;1.63;0.20;;;;;;;4.48;100.00;100866.47;5100031;28;20414;-49
2022/04/19 02:22:47;;;;;;;1.33;0.10;;;;;;;4.41;100.00;100865.38;5105158;28;20032;-49
2022/04/19 02:25:15;;;;;;;0.50;0.10;;;;;;;4.34;100.00;100861.69;5093967;28;20032;-49
2022/04/19 02:27:41;;;;;;;2.42;0.40;;;;;;;4.27;100.00;100860.59;5089981;28;20048;-49
2022/04/19 02:30:13;;;;;;;1.83;0.10;;;;;;;4.23;100.00;100865.28;5098875;28;20451;-49
2022/04/19 02:32:39;;;;;;;0.98;0.13;;;;;;;4.17;100.00;100870.28;5101293;28;20023;-46
2022/04/19 02:35:04;;;;;;;2.17;0.10;;;;;;;4.05;100.00;100861.72;5094185;28;20043;-48
2022/04/19 02:37:32;;;;;;;0.20;0.20;;;;;;;3.94;100.00;100865.31;5098441;28;20379;-48
2022/04/19 02:39:57;;;;;;;2.42;0.00;;;;;;;3.87;100.00;100878.16;5102790;28;20426;-52
2022/04/19 02:42:23;;;;;;;4.07;0.10;;;;;;;3.81;100.00;100872.63;5096216;28;20028;-51
2022/04/19 02:44:48;;;;;;;0.82;0.38;;;;;;;3.75;100.00;100874.00;5094350;28;20044;-49
2022/04/19 02:47:15;;;;;;;1.23;0.10;;;;;;;3.70;100.00;100873.59;5093541;28;20116;-47
2022/04/19 02:49:41;;;;;;;4.97;0.20;;;;;;;3.70;100.00;100870.97;5098566;28;20092;-52
2022/04/19 02:52:07;;;;;;;3.20;0.30;;;;;;;3.70;100.00;100873.59;5095945;28;20058;-51
2022/04/19 02:54:32;;;;;;;1.90;0.47;;;;;;;3.65;100.00;100871.38;5090095;28;20067;-48
2022/04/19 02:56:58;;;;;;;1.50;0.32;;;;;;;3.64;100.00;100864.47;5092621;28;20531;-48
2022/04/19 02:59:24;;;;;;;1.05;0.25;;;;;;;3.64;100.00;100864.47;5103525;28;20040;-50
2022/04/19 03:01:49;;;;;;;0.30;0.10;;;;;;;3.61;100.00;100871.78;5093541;28;20111;-47
2022/04/19 03:04:15;;;;;;;2.13;0.98;;;;;;;3.58;100.00;100874.69;5096289;28;20579;-49
2022/04/19 03:06:41;;;;;;;1.10;0.20;;;;;;;3.50;100.00;100867.47;5104273;28;20038;-49
2022/04/19 03:09:06;;;;;;;0.20;0.05;;;;;;;3.49;100.00;100866.66;5096588;28;20028;-50
2022/04/19 03:11:32;;;;;;;2.35;1.13;;;;;;;3.52;100.00;100868.19;5094741;28;20093;-47
2022/04/19 03:13:58;;;;;;;1.95;0.50;;;;;;;3.58;100.00;100866.81;5096833;28;20070;-48
2022/04/19 03:16:24;;;;;;;1.58;0.73;;;;;;;3.60;100.00;100865.72;5095196;28;20030;-48
2022/04/19 03:18:49;;;;;;;0.47;0.10;;;;;;;3.61;100.00;100866.53;5090380;28;20031;-48
2022/04/19 03:21:14;;;;;;;0.57;0.30;;;;;;;3.57;100.00;100863.38;5091662;28;20078;-48
2022/04/19 03:29:10;;;;;;;4.43;0.93;;;;;;;3.36;100.00;100867.88;5095300;28;20043;-50
2022/04/19 03:31:36;;;;;;;2.72;0.22;;;;;;;3.38;100.00;100865.94;5091594;28;20091;-48
2022/04/19 03:34:05;;;;;;;0.55;0.20;;;;;;;3.38;100.00;100865.94;5094557;28;20464;-48
2022/04/19 03:36:31;;;;;;;0.82;0.50;;;;;;;3.35;100.00;100859.16;5094891;28;20031;-47
2022/04/19 03:38:56;;;;;;;3.28;0.20;;;;;;;3.33;100.00;100863.75;5096195;28;20027;-48
2022/04/19 03:41:22;;;;;;;6.57;0.20;;;;;;;3.31;100.00;100867.47;5090681;28;20032;-49
2022/04/19 03:43:48;;;;;;;2.63;0.40;;;;;;;3.24;100.00;100864.53;5101594;28;20032;-48
2022/04/19 03:46:14;;;;;;;4.15;1.98;;;;;;;3.15;100.00;100866.19;5094876;28;20031;-49
2022/04/19 03:48:39;;;;;;;1.10;0.30;;;;;;;3.06;100.00;100867.78;5087556;28;20289;-49
2022/04/19 03:51:04;;;;;;;2.10;0.13;;;;;;;3.00;100.00;100860.47;5090187;28;20040;-49
2022/04/19 03:53:33;;;;;;;1.55;0.45;;;;;;;2.95;100.00;100857.41;5098313;28;20038;-48
2022/04/19 03:55:58;;;;;;;2.10;1.15;;;;;;;2.93;100.00;100863.75;5096094;28;20032;-47
2022/04/19 03:58:26;;;;;;;0.45;0.25;;;;;;;2.88;100.00;100861.50;5095713;28;20081;-49
2022/04/19 04:00:53;;;;;;;1.95;0.50;;;;;;;2.82;100.00;100855.00;5096223;28;20036;-48
2022/04/19 04:03:18;;;;;;;0.10;0.10;;;;;;;2.78;100.00;100858.03;5109932;28;20384;-50
2022/04/19 04:05:43;;;;;;;1.17;0.40;;;;;;;2.75;100.00;100858.28;5107685;28;20039;-47
2022/04/19 04:08:08;;;;;;;0.38;0.08;;;;;;;2.74;100.00;100852.22;5110469;28;20027;-52
2022/04/19 04:10:34;;;;;;;0.30;0.15;;;;;;;2.71;100.00;100859.50;5095118;28;20517;-50
2022/04/19 04:13:00;;;;;;;0.40;0.13;;;;;;;2.69;100.00;100862.28;5107166;28;20035;-51
2022/04/19 04:15:25;;;;;;;0.20;0.10;;;;;;;2.65;100.00;100866.09;5104749;28;20056;-48
2022/04/19 04:17:51;;;;;;;0.40;0.15;;;;;;;2.63;100.00;100870.63;5092085;28;20051;-48
2022/04/19 04:20:16;;;;;;;0.85;0.22;;;;;;;2.57;100.00;100874.59;5105382;28;20034;-48
2022/04/19 04:22:41;;;;;;;1.02;0.75;;;;;;;2.53;100.00;100877.59;5105061;28;20053;-48
2022/04/19 04:25:07;;;;;;;2.28;0.20;;;;;;;2.51;100.00;100871.69;5101499;28;20024;-47
2022/04/19 04:27:32;;;;;;;0.82;0.08;;;;;;;2.48;100.00;100872.78;5093915;28;20032;-52
2022/04/19 04:29:58;;;;;;;3.90;0.20;;;;;;;2.44;100.00;100875.75;5104718;28;20175;-49
2022/04/19 04:32:23;;;;;;;2.65;0.32;;;;;;;2.41;100.00;100871.63;5093030;28;20495;-51
2022/04/19 04:34:48;;;;;;;1.38;0.30;;;;;;;2.43;100.00;100871.47;5084571;28;20032;-48
2022/04/19 04:37:14;;;;;;;2.70;0.10;;;;;;;2.48;100.00;100874.53;5093101;28;20032;-50
2022/04/19 04:39:39;;;;;;;2.53;0.20;;;;;;;2.50;100.00;100890.94;5103269;28;20556;-50
2022/04/19 04:42:05;;;;;;;9.10;1.55;;;;;;;2.48;100.00;100878.00;5092683;28;20476;-51
2022/04/19 04:44:30;;;;;;;3.67;0.82;;;;;;;2.53;100.00;100885.44;5097344;28;20039;-49
2022/04/19 04:49:39;;;;;;;3.42;0.20;;;;;;;2.61;100.00;100877.81;5102980;28;20400;-48
2022/04/19 04:52:09;;;;;;;3.45;0.40;;;;;;;2.66;100.00;100880.88;5099834;28;20356;-48
2022/04/19 04:54:36;;;;;;;3.22;1.70;;;;;;;2.72;100.00;100882.94;5099193;28;20105;-48
2022/04/19 04:57:02;;;;;;;2.95;1.17;;;;;;;2.73;100.00;100881.97;5103810;28;20031;-47
2022/04/19 04:59:29;;;;;;;0.22;0.13;;;;;;;2.70;100.00;100887.47;5098921;28;20036;-50
2022/04/19 05:01:54;;;;;;;1.23;0.20;;;;;;;2.66;100.00;100891.34;5098489;28;20385;-47
2022/04/19 05:04:20;;;;;;;1.02;0.43;;;;;;;2.68;100.00;100889.41;5098341;28;20460;-49
2022/04/19 05:06:45;;;;;;;0.77;0.30;;;;;;;2.68;100.00;100894.63;5095696;28;20034;-47
2022/04/19 05:09:10;;;;;;;2.92;0.30;;;;;;;2.69;100.00;100896.31;5106899;28;20027;-49
2022/04/19 05:11:36;;;;;;;0.15;0.00;;;;;;;2.73;100.00;100904.72;5096504;28;20028;-50
2022/04/19 05:14:01;;;;;;;0.85;0.40;;;;;;;2.80;100.00;100898.00;5096489;28;20073;-47
2022/04/19 05:16:27;;;;;;;0.40;0.10;;;;;;;2.91;100.00;100900.53;5092320;28;20497;-49
2022/04/19 05:18:52;;;;;;;2.55;0.52;;;;;;;3.01;100.00;100890.94;5085705;28;20028;-47
2022/04/19 05:21:17;;;;;;;1.17;0.80;;;;;;;3.02;100.00;100892.59;5107596;28;20106;-49
2022/04/19 05:23:43;;;;;;;0.90;0.85;;;;;;;2.99;100.00;100892.84;5108735;28;20486;-49
2022/04/19 05:26:08;;;;;;;1.85;0.40;;;;;;;2.98;100.00;100900.84;5105715;28;20035;-48
2022/04/19 05:28:33;;;;;;;0.93;0.93;;;;;;;2.93;100.00;100893.38;5102748;28;20357;-51
2022/04/19 05:30:59;;;;;;;1.05;0.00;;;;;;;2.90;100.00;100898.06;5101455;28;20051;-49
2022/04/19 05:33:24;;;;;;;0.85;0.15;;;;;;;2.87;100.00;100900.94;5105231;28;20605;-49
2022/04/19 05:35:51;;;;;;;0.63;0.40;;;;;;;2.88;100.00;100900.81;5101763;28;20035;-47
2022/04/19 05:38:16;;;;;;;4.13;0.38;;;;;;;2.94;100.00;100902.06;5100618;28;20472;-47
2022/04/19 05:40:42;;;;;;;0.55;0.38;;;;;;;2.97;100.00;100888.69;5090452;28;20031;-48
2022/04/19 05:43:07;;;;;;;0.73;0.20;;;;;;;2.98;100.00;100898.22;5101537;28;20387;-51
2022/04/19 05:45:33;;;;;;;2.15;0.30;;;;;;;2.97;100.00;100904.41;5104850;28;20478;-48
2022/04/19 05:47:58;;;;;;;6.13;0.77;;;;;;;2.99;100.00;100910.34;5100465;28;20063;-47
2022/04/19 05:50:24;;;;;;;0.30;0.13;;;;;;;3.03;100.00;100896.88;5096489;28;20058;-48
2022/04/19 05:52:50;;;;;;;3.80;1.23;;;;;;;3.05;100.00;100902.00;5102494;28;20102;-47
2022/04/19 05:55:15;;;;;;;1.00;0.30;;;;;;;3.10;100.00;100904.19;5093991;28;20622;-48
2022/04/19 05:57:41;;;;;;;2.40;0.68;;;;;;;3.14;100.00;100902.97;5101544;28;20027;-47
2022/04/19 06:00:07;;;;;;;0.40;0.03;;;;;;;3.16;100.00;100904.50;5101625;28;20157;-48
2022/04/19 06:05:16;;;;;;;4.53;0.25;;;;;;;3.34;100.00;100906.50;5105191;28;20034;-49
2022/04/19 06:07:46;;;;;;;5.47;0.90;;;;;;;3.47;100.00;100913.16;5103656;28;20035;-47
2022/04/19 06:10:14;;;;;;;2.60;1.65;;;;;;;3.59;100.00;100910.41;5104600;28;20386;-47
2022/04/19 06:12:39;;;;;;;0.50;0.50;;;;;;;3.69;100.00;100906.88;5105795;28;20023;-47
2022/04/19 06:15:05;;;;;;;2.03;1.55;;;;;;;3.79;100.00;100921.75;5105477;28;20042;-47
2022/04/19 06:17:32;;;;;;;4.65;1.38;;;;;;;3.86;100.00;100907.97;5105416;28;20078;-50
2022/04/19 06:19:58;;;;;;;0.70;0.45;;;;;;;3.94;100.00;100904.66;5107298;28;20378;-49
2022/04/19 06:22:23;;;;;;;3.70;1.85;;;;;;;4.03;100.00;100909.09;5102750;28;20022;-46
2022/04/19 06:24:49;;;;;;;1.65;0.70;;;;;;;4.10;100.00;100904.09;5107392;28;20118;-49
2022/04/19 06:27:14;;;;;;;0.30;0.30;;;;;;;4.18;100.00;100906.03;5101135;28;20027;-50
2022/04/19 06:29:39;;;;;;;1.10;0.40;;;;;;;4.21;100.00;100901.34;5099102;28;20032;-50
2022/04/19 06:32:05;;;;;;;1.70;0.20;;;;;;;4.28;100.00;100906.88;5102281;28;20027;-48
2022/04/19 06:34:30;;;;;;;4.60;1.85;;;;;;;4.28;100.00;100909.50;5087833;28;20028;-50
2022/04/19 06:36:56;;;;;;;0.40;0.30;;;;;;;4.29;100.00;100911.97;5103641;28;20063;-47
2022/04/19 06:39:21;;;;;;;3.97;0.30;;;;;;;4.30;100.00;100916.25;5094985;28;20046;-51
2022/04/19 06:41:46;;;;;;;0.70;0.22;;;;;;;4.33;100.00;100913.34;5099221;28;20031;-47
2022/04/19 06:44:12;;;;;;;4.22;0.60;;;;;;;4.41;100.00;100912.66;5105587;28;20084;-47
2022/04/19 06:46:37;;;;;;;1.00;0.45;;;;;;;4.47;100.00;100917.34;5099216;28;20520;-48
2022/04/19 06:49:05;;;;;;;5.22;0.60;;;;;;;4.55;100.00;100930.59;5093918;28;20027;-47
2022/04/19 06:51:32;;;;;;;3.70;0.68;;;;;;;4.69;100.00;100920.63;5100109;28;20475;-47
2022/04/19 06:53:58;;;;;;;4.07;1.27;;;;;;;4.84;100.00;100921.00;5103731;28;20122;-50
2022/04/19 06:56:23;;;;;;;3.92;1.25;;;;;;;5.00;100.00;100929.94;5097295;28;20046;-48
2022/04/19 06:58:49;;;;;;;7.15;1.27;;;;;;;5.19;100.00;100928.22;5082559;28;20130;-53
2022/04/19 07:01:14;;;;;;;0.90;0.70;;;;;;;5.46;100.00;100930.03;5102659;28;20039;-48
2022/04/19 07:03:40;;;;;;;1.90;1.10;;;;;;;5.75;100.00;100923.75;5106432;28;20020;-47
2022/04/19 07:06:08;;;;;;;4.55;1.10;;;;;;;6.10;100.00;100929.06;5097722;28;20070;-48
2022/04/19 07:08:34;;;;;;;4.72;1.50;;;;;;;6.49;100.00;100928.72;5104733;28;20479;-46
2022/04/19 07:11:03;;;;;;;1.77;1.20;;;;;;;6.86;100.00;100937.38;5106887;28;20023;-47
2022/04/19 07:13:29;;;;;;;2.25;1.35;;;;;;;7.17;100.00;100929.78;5099063;28;20028;-49
2022/04/19 07:15:54;;;;;;;3.05;1.17;;;;;;;7.36;100.00;100926.94;5102580;28;20030;-49
2022/04/19 07:18:23;;;;;;;6.90;2.28;;;;;;;7.53;100.00;100927.78;5097823;28;20028;-50
2022/04/19 07:29:01;;;;;;;4.20;2.45;;;;;;;8.18;100.00;100918.34;5092328;28;20034;-49
2022/04/19 07:31:27;;;;;;;2.60;1.55;;;;;;;8.38;100.00;100918.84;5096785;28;20023;-48
2022/04/19 07:33:52;;;;;;;2.83;1.95;;;;;;;8.46;100.00;100914.41;5096246;28;20579;-51
2022/04/19 07:36:19;;;;;;;5.63;3.25;;;;;;;8.57;100.00;100915.06;5093930;28;20120;-51
2022/04/19 07:38:44;;;;;;;4.63;2.03;;;;;;;8.67;100.00;100913.91;5095999;28;20024;-51
2022/04/19 07:41:09;;;;;;;11.85;3.63;;;;;;;8.72;100.00;100919.50;5099484;28;20028;-49
2022/04/19 07:43:35;;;;;;;4.30;1.70;;;;;;;8.75;100.00;100923.63;5105434;28;20027;-51
2022/04/19 07:46:04;;;;;;;7.13;2.00;;;;;;;8.81;100.00;100927.44;5102491;28;20030;-50
2022/04/19 07:48:30;;;;;;;3.85;2.80;;;;;;;8.96;100.00;100917.81;5108193;28;20379;-48
2022/04/19 07:50:56;;;;;;;2.83;1.45;;;;;;;9.12;100.00;100914.28;5098341;28;20107;-51
2022/04/19 07:53:22;;;;;;;4.57;2.17;;;;;;;9.20;100.00;100914.25;5101789;28;20028;-49
2022/04/19 07:55:48;;;;;;;2.17;1.30;;;;;;;9.30;100.00;100912.22;5096795;28;20032;-53
2022/04/19 07:58:13;;;;;;;6.00;1.75;;;;;;;9.35;100.00;100924.94;5096418;28;20020;-49
2022/04/19 08:00:38;;;;;;;3.65;2.13;;;;;;;9.41;100.00;100911.00;5095489;28;20032;-51
2022/04/19 08:03:04;;;;;;;5.72;2.20;;;;;;;9.37;100.00;100907.03;5090145;28;20072;-49
2022/04/19 08:05:29;;;;;;;4.07;2.53;;;;;;;9.39;100.00;100911.16;5089653;28;20026;-51
2022/04/19 08:07:57;;;;;;;5.85;1.98;;;;;;;9.47;100.00;100907.66;5096447;28;20383;-48
2022/04/19 08:10:22;;;;;;;2.55;1.83;;;;;;;9.46;100.00;100899.91;5092857;28;20032;-49
2022/04/19 08:12:48;;;;;;;2.67;1.73;;;;;;;9.57;100.00;100900.31;5105765;28;20039;-49
2022/04/19 08:15:13;;;;;;;6.70;2.65;;;;;;;9.70;100.00;100899.75;5097643;28;20358;-49
2022/04/19 08:17:39;;;;;;;3.05;1.63;;;;;;;9.68;100.00;100893.84;5088012;28;20119;-47
2022/04/19 08:20:05;;;;;;;6.25;1.80;;;;;;;9.57;100.00;100900.31;5098336;28;20024;-48
2022/04/19 08:22:31;;;;;;;5.38;1.83;;;;;;;9.45;100.00;100898.25;5096597;28;20024;-49
2022/04/19 08:24:56;;;;;;;2.42;1.73;;;;;;;9.37;100.00;100897.31;5099636;28;20039;-50
2022/04/19 08:27:22;;;;;;;4.53;1.60;;;;;;;9.37;100.00;100891.16;5093354;28;20034;-51
2022/04/19 08:29:48;;;;;;;2.30;2.08;;;;;;;9.43;100.00;100890.50;5099792;28;20023;-48
2022/04/19 08:32:14;;;;;;;5.50;2.08;;;;;;;9.49;100.00;100892.44;5082479;28;20403;-49
2022/04/19 08:34:40;;;;;;;6.07;3.05;;;;;;;9.53;100.00;100888.47;5099120;28;20396;-47
2022/04/19 08:37:07;;;;;;;2.95;1.45;;;;;;;9.61;100.00;100887.59;5095610;28;20099;-50
2022/04/19 08:39:33;;;;;;;3.70;2.08;;;;;;;9.71;100.00;100887.38;5096315;28;20028;-47
2022/04/19 08:41:58;;;;;;;5.10;2.63;;;;;;;9.84;100.00;100895.56;5102598;28;20027;-49
2022/04/19 08:44:25;;;;;;;4.40;2.40;;;;;;;9.95;100.00;100889.84;5098354;28;20028;-47
2022/04/19 08:46:50;;;;;;;6.00;2.10;;;;;;;10.01;100.00;100888.28;5107401;28;20028;-50
2022/04/19 08:49:17;;;;;;;5.65;2.15;;;;;;;10.13;100.00;100886.88;5105758;28;20559;-51
2022/04/19 08:51:44;;;;;;;1.73;1.42;;;;;;;10.28;100.00;100884.31;5102515;28;20035;-49
2022/04/19 08:59:39;;;;;;;3.28;1.90;;;;;;;10.61;100.00;100879.53;5099132;28;20500;-48
2022/04/19 09:02:05;;;;;;;4.05;1.50;;;;;;;10.75;100.00;100874.41;5100865;28;20064;-48
2022/04/19 09:04:31;;;;;;;3.80;1.83;;;;;;;10.90;100.00;100878.72;5097884;28;20072;-49
2022/04/19 09:06:58;;;;;;;4.55;1.40;;;;;;;10.99;100.00;100884.75;5099042;28;20028;-48
2022/04/19 09:09:26;;;;;;;4.63;1.88;;;;;;;10.99;100.00;100878.63;5094646;28;20035;-49
2022/04/19 09:11:54;;;;;;;4.18;1.35;;;;;;;11.10;100.00;100873.69;5097617;28;20454;-50
2022/04/19 09:14:20;;;;;;;4.90;1.63;;;;;;;11.34;100.00;100869.06;5095663;28;20055;-49
2022/04/19 09:16:46;;;;;;;5.45;1.27;;;;;;;11.39;100.00;100869.31;5105460;28;20059;-48
2022/04/19 09:19:29;;;;;;;3.50;1.90;;;;;;;11.29;100.00;100866.97;5103669;28;20480;-50
2022/04/19 09:21:55;;;;;;;5.20;1.35;;;;;;;11.29;100.00;100869.59;5098475;28;20028;-48
2022/04/19 09:24:22;;;;;;;5.30;1.35;;;;;;;11.29;100.00;100871.44;5098820;28;20019;-52
2022/04/19 09:26:48;;;;;;;4.60;1.60;;;;;;;11.39;100.00;100876.47;5099864;28;20027;-51
2022/04/19 09:29:24;;;;;;;2.17;1.50;;;;;;;11.84;100.00;100877.13;5103740;28;20016;-48
2022/04/19 09:31:58;;;;;;;6.03;2.30;;;;;;;12.08;100.00;100875.97;5103681;28;20031;-53
2022/04/19 09:34:30;;;;;;;2.70;2.00;;;;;;;12.35;100.00;100872.50;5104893;28;20028;-49
2022/04/19 09:37:12;;;;;;;2.63;1.30;;;;;;;12.93;100.00;100874.91;5101905;28;20035;-51
2022/04/19 09:39:41;;;;;;;10.35;1.90;;;;;;;12.94;100.00;100873.91;5099478;28;20127;-48
2022/04/19 09:42:14;;;;;;;2.67;1.25;;;;;;;13.09;100.00;100869.28;5098876;28;20484;-48
2022/04/19 09:44:42;;;;;;;4.03;2.80;;;;;;;13.04;100.00;100862.91;5091077;28;20027;-48
2022/04/19 09:47:12;;;;;;;5.50;1.85;;;;;;;12.77;100.00;100857.44;5102173;28;20035;-52
2022/04/19 09:49:52;;;;;;;2.65;2.30;;;;;;;12.95;100.00;100864.91;5100479;28;20035;-48
2022/04/19 09:52:20;;;;;;;5.78;2.45;;;;;;;13.13;100.00;100864.38;5104787;28;20618;-47
2022/04/19 09:54:59;;;;;;;5.10;3.00;;;;;;;12.68;100.00;100858.63;5095131;28;20035;-45
2022/04/19 09:57:24;;;;;;;4.35;1.83;;;;;;;12.40;100.00;100858.63;5097041;28;20035;-47
2022/04/19 09:59:52;;;;;;;4.43;1.88;;;;;;;12.30;100.00;100853.66;5099119;28;20039;-50
2022/04/19 10:10:32;;;;;;;8.27;2.78;;;;;;;13.71;100.00;100846.16;5091659;28;20432;-48
2022/04/19 10:12:58;;;;;;;3.85;1.50;;;;;;;14.14;100.00;100851.09;5082331;28;20377;-48
2022/04/19 10:15:24;;;;;;;4.72;2.65;;;;;;;14.48;100.00;100851.06;5099036;28;20118;-47
2022/04/19 10:17:49;;;;;;;2.75;1.27;;;;;;;14.42;100.00;100842.03;5092589;28;20035;-49
2022/04/19 10:20:16;;;;;;;6.43;1.38;;;;;;;14.28;100.00;100840.44;5086559;28;20058;-49
2022/04/19 10:22:48;;;;;;;1.83;1.42;;;;;;;14.46;100.00;100845.13;5094741;28;20035;-47
2022/04/19 10:25:15;;;;;;;17.38;3.28;;;;;;;14.82;100.00;100842.00;5091289;28;20376;-50
2022/04/19 10:27:42;;;;;;;4.38;1.70;;;;;;;15.07;100.00;100836.75;5094087;28;20445;-46
2022/04/19 10:30:08;;;;;;;4.78;1.50;;;;;;;14.98;100.00;100838.03;5100686;28;20039;-46
2022/04/19 10:32:33;;;;;;;6.57;1.63;;;;;;;14.92;100.00;100839.72;5102335;28;20400;-49
2022/04/19 10:35:03;;;;;;;4.50;1.30;;;;;;;14.74;100.00;100840.38;5100311;28;20047;-48
2022/04/19 10:37:29;;;;;;;7.40;2.25;;;;;;;14.71;100.00;100835.44;5094874;28;20023;-48
2022/04/19 10:39:57;;;;;;;5.00;1.75;;;;;;;14.79;100.00;100837.06;5105928;28;20475;-49
2022/04/19 10:42:32;;;;;;;4.82;1.52;;;;;;;14.60;100.00;100841.44;5095545;28;20058;-53
2022/04/19 10:45:17;;;;;;;1.77;1.20;;;;;;;14.72;100.00;100837.09;5091833;28;20031;-47
2022/04/19 10:47:55;;;;;;;6.13;1.40;;;;;;;14.64;100.00;100839.16;5088887;28;20432;-48
2022/04/19 10:50:44;;;;;;;8.13;0.90;;;;;;;14.55;100.00;100841.22;5092763;28;20031;-49
2022/04/19 10:53:13;;;;;;;4.20;1.17;;;;;;;14.70;100.00;100839.16;5094928;28;20031;-48
2022/04/19 10:55:58;;;;;;;4.13;1.30;;;;;;;14.70;100.00;100839.16;5087002;28;20107;-51
2022/04/19 10:58:44;;;;;;;3.72;1.15;;;;;;;14.76;100.00;100842.81;5090887;28;20506;-56
2022/04/19 11:01:30;;;;;;;5.30;1.13;;;;;;;14.64;100.00;100836.47;5101382;28;20035;-52
2022/04/19 11:03:56;;;;;;;3.40;1.00;;;;;;;14.70;100.00;100838.34;5106445;28;20483;-50
2022/04/19 11:06:47;;;;;;;9.30;1.80;;;;;;;14.96;100.00;100837.44;5097966;28;20436;-51
2022/04/19 11:09:21;;;;;;;5.85;2.25;;;;;;;14.90;100.00;100831.09;5101906;28;20070;-52
2022/04/19 11:11:49;;;;;;;3.53;0.85;;;;;;;14.60;100.00;100838.75;5092302;28;20369;-52
2022/04/19 11:14:19;;;;;;;2.05;1.02;;;;;;;14.55;100.00;100833.22;5100543;28;20028;-50
2022/04/19 11:16:53;;;;;;;0.98;0.63;;;;;;;14.54;100.00;100840.41;5104337;28;20031;-55
2022/04/19 11:19:24;;;;;;;3.70;0.75;;;;;;;14.63;100.00;100834.84;5098349;28;20092;-51
2022/04/19 11:21:54;;;;;;;2.15;0.55;;;;;;;14.65;100.00;100835.47;5090880;28;20036;-52
2022/04/19 11:24:56;;;;;;;3.28;0.80;;;;;;;14.89;100.00;100836.63;5105109;28;20045;-52
2022/04/19 11:27:22;;;;;;;2.83;0.35;;;;;;;15.11;100.00;100845.19;5103279;28;20032;-51
2022/04/19 11:29:49;;;;;;;1.83;0.50;;;;;;;15.21;100.00;100840.22;5093825;28;20047;-50
2022/04/19 11:32:23;;;;;;;1.38;0.60;;;;;;;15.46;100.00;100827.75;5092648;28;20032;-52
2022/04/19 11:35:01;;;;;;;6.22;1.25;;;;;;;15.96;100.00;100831.56;5103143;28;20085;-49
2022/04/19 11:37:31;;;;;;;6.80;0.80;;;;;;;16.07;100.00;100826.28;5103203;28;20084;-52
2022/04/19 11:48:29;;;;;;;3.97;0.90;;;;;;;15.01;100.00;100826.94;5081150;28;20034;-55
2022/04/19 11:51:06;;;;;;;1.05;0.88;;;;;;;14.94;100.00;100821.59;5089281;28;20081;-53
2022/04/19 11:53:31;;;;;;;5.93;0.73;;;;;;;14.92;100.00;100825.53;5099573;28;20106;-51
2022/04/19 11:55:59;;;;;;;3.25;0.60;;;;;;;14.78;100.00;100824.75;5089425;28;20112;-49
2022/04/19 11:58:25;;;;;;;1.30;0.60;;;;;;;14.64;100.00;100825.81;5099721;28;20038;-53
2022/04/19 12:01:03;;;;;;;2.95;0.45;;;;;;;14.60;100.00;100825.41;5079464;28;20035;-52
2022/04/19 12:03:32;;;;;;;0.73;0.40;;;;;;;14.57;100.00;100825.84;5090711;28;20503;-54
2022/04/19 12:06:07;;;;;;;3.60;0.82;;;;;;;14.53;100.00;100828.13;5094853;28;20827;-50
2022/04/19 12:08:41;;;;;;;1.95;0.52;;;;;;;14.65;100.00;100825.59;5095118;28;20484;-54